Time;durP1;ratioP1;P1;durP2;ratioP2;P2;SDS_P1;SDS_P2;PMS_P1;PMS_P2;Temp;Humidity;BMP_temperature;BMP_pressure;BME280_temperature;BME280_humidity;BME280_pressure;Samples;Min_cycle;Max_cycle;Signal;HPM_P1;HPM_P2
2021/01/11 00:00:07;;;;;;;1999.90;999.90;;;;;;;2.01;70.58;101645.53;15805723;28;20305;-54
2021/01/11 00:07:41;;;;;;;1999.90;999.90;;;;;;;1.84;70.79;101636.47;15856629;28;20052;-55
2021/01/11 00:15:15;;;;;;;1999.90;999.90;;;;;;;1.62;71.30;101623.47;15830236;28;20074;-55
2021/01/11 00:22:48;;;;;;;1999.90;999.90;;;;;;;1.79;71.31;101615.22;15830711;28;20097;-57
2021/01/11 00:30:23;;;;;;;1999.90;999.90;;;;;;;1.80;70.68;101624.31;15826617;28;20066;-56
2021/01/11 00:37:55;;;;;;;1999.90;999.90;;;;;;;1.68;71.38;101633.50;15836674;28;20404;-59
2021/01/11 00:45:29;;;;;;;1999.90;999.90;;;;;;;1.97;70.50;101644.34;15863329;28;20408;-52
2021/01/11 00:53:01;;;;;;;;;;;;;;;2.03;70.45;101635.09;15791796;28;20388;-55
2021/01/11 01:00:35;;;;;;;1999.90;999.90;;;;;;;2.07;70.17;101641.75;15812908;28;19920;-53
2021/01/11 01:08:16;;;;;;;1999.90;999.90;;;;;;;2.16;69.86;101648.50;15818897;28;20130;-53
2021/01/11 01:15:49;;;;;;;1999.90;999.90;;;;;;;2.17;69.83;101641.06;15817573;28;20455;-56
2021/01/11 01:23:22;;;;;;;1999.90;999.90;;;;;;;2.26;68.92;101632.09;15817663;28;20057;-56
2021/01/11 01:30:56;;;;;;;1999.90;999.90;;;;;;;2.47;68.50;101624.94;15824169;28;20090;-58
2021/01/11 01:38:29;;;;;;;1999.90;999.90;;;;;;;2.46;67.84;101619.69;15810575;28;20114;-56
2021/01/11 01:46:04;;;;;;;1999.90;999.90;;;;;;;2.50;68.15;101599.63;15840231;28;20491;-57
2021/01/11 01:53:37;;;;;;;1999.90;999.90;;;;;;;2.48;68.29;101611.97;15830163;28;20405;-55
2021/01/11 02:01:10;;;;;;;1999.90;999.90;;;;;;;2.56;67.15;101611.53;15872849;28;20080;-55
2021/01/11 02:08:50;;;;;;;1999.90;999.90;;;;;;;2.79;66.04;101602.97;15831441;28;20096;-56
2021/01/11 02:16:34;;;;;;;1999.90;999.90;;;;;;;2.60;66.38;101604.41;15848557;28;20523;-54
2021/01/11 02:24:38;;;;;;;1999.90;999.90;;;;;;;2.70;66.26;101589.91;15871261;28;20039;-54
2021/01/11 02:32:14;;;;;;;1999.90;999.90;;;;;;;2.78;66.10;101592.22;15817938;28;20150;-52
2021/01/11 02:39:47;;;;;;;1999.90;999.90;;;;;;;2.66;66.70;101575.00;15833524;28;20055;-51
2021/01/11 02:47:26;;;;;;;1999.90;999.90;;;;;;;2.72;66.33;101580.31;15845677;28;20047;-53
2021/01/11 02:55:06;;;;;;;1999.90;999.90;;;;;;;2.50;66.76;101574.84;15804407;28;20039;-54
2021/01/11 03:02:43;;;;;;;1999.90;999.90;;;;;;;2.61;66.30;101573.03;15813886;28;20043;-53
2021/01/11 03:10:16;;;;;;;1999.90;999.90;;;;;;;2.59;67.00;101561.41;15784933;28;20040;-52
2021/01/11 03:17:49;;;;;;;1999.90;999.90;;;;;;;2.57;67.43;101555.34;15806373;28;20066;-59
2021/01/11 03:25:22;;;;;;;1999.90;999.90;;;;;;;2.54;67.53;101547.59;15826135;28;20405;-57
2021/01/11 03:32:56;;;;;;;1999.90;999.90;;;;;;;2.62;67.65;101558.16;15786760;28;20450;-56
2021/01/11 03:40:28;;;;;;;1999.90;999.90;;;;;;;2.72;67.71;101550.00;15824734;28;20829;-54
2021/01/11 03:48:02;;;;;;;1999.90;999.90;;;;;;;2.78;68.47;101548.94;15845574;28;20412;-52
2021/01/11 03:55:34;;;;;;;1999.90;999.90;;;;;;;2.60;68.97;101536.38;15805921;28;20494;-57
2021/01/11 04:03:08;;;;;;;1999.90;999.90;;;;;;;2.56;70.10;101542.66;15827322;28;20146;-55
2021/01/11 04:10:41;;;;;;;1999.90;999.90;;;;;;;2.62;70.91;101536.13;15840275;28;20054;-51
2021/01/11 04:18:14;;;;;;;1999.90;999.90;;;;;;;2.37;72.65;101528.38;15861471;28;20035;-57
2021/01/11 04:25:47;;;;;;;;;;;;;;;2.70;71.91;101521.00;15845477;28;20074;-58
2021/01/11 04:33:20;;;;;;;1999.90;999.90;;;;;;;2.44;72.21;101530.97;15815005;28;20018;-57
2021/01/11 04:40:59;;;;;;;1999.90;999.90;;;;;;;2.35;72.39;101521.47;15795298;28;20059;-56
2021/01/11 04:48:33;;;;;;;1999.90;999.90;;;;;;;2.23;73.42;101516.94;15827325;28;20108;-55
2021/01/11 04:56:06;;;;;;;1999.90;999.90;;;;;;;2.43;73.15;101521.03;15777481;28;20055;-54
2021/01/11 05:03:40;;;;;;;1999.90;999.90;;;;;;;2.43;72.84;101515.53;15828129;28;20492;-54
2021/01/11 05:11:14;;;;;;;1999.90;999.90;;;;;;;2.38;72.78;101505.25;15812386;28;20130;-55
2021/01/11 05:18:47;;;;;;;1999.90;999.90;;;;;;;2.46;73.39;101502.03;15850614;28;20059;-56
2021/01/11 05:26:20;;;;;;;1999.90;999.90;;;;;;;2.23;73.40;101507.88;15828915;28;20067;-54
2021/01/11 05:33:56;;;;;;;1999.90;999.90;;;;;;;2.18;73.57;101488.50;15819147;28;20071;-56
2021/01/11 05:41:29;;;;;;;1999.90;999.90;;;;;;;2.30;72.72;101494.72;15818248;28;20040;-54
2021/01/11 05:49:05;;;;;;;1999.90;999.90;;;;;;;2.14;73.23;101495.63;15832218;28;20524;-55
2021/01/11 05:56:51;;;;;;;1999.90;999.90;;;;;;;2.34;72.66;101497.78;15797986;28;20407;-57
2021/01/11 06:04:25;;;;;;;1999.90;999.90;;;;;;;2.15;73.00;101486.28;15798013;28;20040;-55
2021/01/11 06:12:04;;;;;;;1999.90;999.90;;;;;;;2.30;72.63;101487.31;15848627;28;20097;-56
2021/01/11 06:19:39;;;;;;;1999.90;999.90;;;;;;;1.94;72.85;101482.47;15826792;28;20055;-58
2021/01/11 06:27:16;;;;;;;1999.90;999.90;;;;;;;2.30;72.02;101470.78;15844676;28;20052;-52
2021/01/11 06:34:50;;;;;;;1999.90;999.90;;;;;;;2.31;71.97;101474.34;15832097;28;20051;-56
2021/01/11 06:42:23;;;;;;;1999.90;999.90;;;;;;;2.30;71.96;101475.44;15859817;28;20043;-54
2021/01/11 06:50:05;;;;;;;1999.90;999.90;;;;;;;2.36;71.36;101479.06;15813735;28;20101;-54
2021/01/11 06:57:40;;;;;;;1999.90;999.90;;;;;;;2.28;71.65;101478.44;15805042;28;20129;-57
2021/01/11 07:05:45;;;;;;;1999.90;999.90;;;;;;;2.38;71.79;101466.69;15786442;28;20413;-55
2021/01/11 07:13:28;;;;;;;1999.90;999.90;;;;;;;2.55;71.26;101458.31;15788247;28;20081;-53
2021/01/11 07:21:11;;;;;;;1999.90;999.90;;;;;;;2.55;71.19;101474.88;15785835;28;20143;-51
2021/01/11 07:29:05;;;;;;;1999.90;999.90;;;;;;;2.54;70.70;101464.94;15804074;28;20040;-51
2021/01/11 07:36:41;;;;;;;1999.90;999.90;;;;;;;2.66;70.10;101457.31;15785704;28;20089;-52
2021/01/11 07:44:19;;;;;;;1999.90;999.90;;;;;;;2.75;70.02;101443.91;15785845;28;20043;-54
2021/01/11 07:51:54;;;;;;;1999.90;999.90;;;;;;;2.54;69.82;101460.25;15767975;28;20048;-56
2021/01/11 07:59:27;;;;;;;1999.90;999.90;;;;;;;2.70;68.99;101450.19;15802191;28;20140;-52
2021/01/11 08:07:05;;;;;;;1999.90;999.90;;;;;;;2.60;69.02;101450.97;15801398;28;20036;-55
2021/01/11 08:14:40;;;;;;;1999.90;999.90;;;;;;;2.85;68.51;101458.59;15802050;28;20044;-55
2021/01/11 08:22:18;;;;;;;1999.90;999.90;;;;;;;3.02;67.82;101460.34;15800354;28;20072;-51
2021/01/11 08:29:51;;;;;;;1999.90;999.90;;;;;;;3.09;67.86;101458.22;15798890;28;20116;-51
2021/01/11 08:37:33;;;;;;;1999.90;999.90;;;;;;;3.18;67.13;101454.69;15799905;28;20102;-54
2021/01/11 08:45:26;;;;;;;1999.90;999.90;;;;;;;3.13;66.86;101457.44;15798963;28;20073;-53
2021/01/11 08:53:15;;;;;;;1999.90;999.90;;;;;;;3.29;66.83;101455.59;15799279;28;20382;-52
2021/01/11 09:00:48;;;;;;;1999.90;999.90;;;;;;;3.28;66.73;101453.94;15781705;28;20043;-56
2021/01/11 09:08:22;;;;;;;1999.90;999.90;;;;;;;3.44;66.20;101460.38;15764370;28;20127;-53
2021/01/11 09:16:11;;;;;;;1999.90;999.90;;;;;;;3.65;66.14;101451.09;15781306;28;20097;-55
2021/01/11 09:23:44;;;;;;;1999.90;999.90;;;;;;;3.33;66.20;101461.41;15799005;28;20591;-54
2021/01/11 09:31:17;;;;;;;1999.90;999.90;;;;;;;3.53;65.74;101461.50;15798514;28;20445;-52
2021/01/11 09:38:51;;;;;;;1999.90;999.90;;;;;;;3.70;65.10;101461.31;15797988;28;20441;-52
2021/01/11 09:46:24;;;;;;;1999.90;999.90;;;;;;;3.62;65.32;101459.91;15807019;28;20480;-54
2021/01/11 09:53:58;;;;;;;1999.90;999.90;;;;;;;3.64;65.47;101445.81;15808621;28;20052;-55
2021/01/11 10:01:38;;;;;;;1999.90;999.90;;;;;;;3.93;64.48;101449.81;15790565;28;20498;-56
2021/01/11 10:09:13;;;;;;;1999.90;999.90;;;;;;;3.61;65.10;101449.13;15790058;28;20044;-58
2021/01/11 10:16:51;;;;;;;1999.90;999.90;;;;;;;3.62;64.75;101435.06;15789799;28;20044;-53
2021/01/11 10:24:26;;;;;;;1999.90;999.90;;;;;;;3.85;64.36;101413.63;15788935;28;20469;-56
2021/01/11 10:31:58;;;;;;;;;;;;;;;3.99;64.31;101417.53;15772735;28;20054;-53
2021/01/11 10:39:32;;;;;;;1999.90;999.90;;;;;;;3.97;63.91;101414.22;15806803;28;19946;-52
2021/01/11 10:47:04;;;;;;;1999.90;999.90;;;;;;;4.11;63.35;101403.47;15787705;28;20044;-55
2021/01/11 10:54:40;;;;;;;1999.90;999.90;;;;;;;4.26;62.77;101389.69;15804392;28;20044;-51
2021/01/11 11:02:13;;;;;;;;;;;;;;;4.00;63.16;101388.81;15787669;28;20044;-52
2021/01/11 11:09:46;;;;;;;1999.90;999.90;;;;;;;3.89;63.89;101379.69;15787064;28;19920;-51
2021/01/11 11:17:19;;;;;;;1999.90;999.90;;;;;;;3.79;65.07;101360.34;15786635;28;20044;-51
2021/01/11 11:24:53;;;;;;;1999.90;999.90;;;;;;;3.95;65.31;101353.72;15791677;28;20123;-55
2021/01/11 11:32:30;;;;;;;1999.90;999.90;;;;;;;3.56;66.55;101339.56;15813653;28;20052;-53
2021/01/11 11:40:04;;;;;;;1999.90;999.90;;;;;;;3.53;66.90;101325.47;15785271;28;20070;-54
2021/01/11 11:47:38;;;;;;;1999.90;999.90;;;;;;;3.45;67.67;101315.81;15768043;28;20136;-52
2021/01/11 11:55:12;;;;;;;1999.90;999.90;;;;;;;3.64;67.83;101308.66;15783472;28;20048;-53
2021/01/11 12:02:47;;;;;;;1999.90;999.90;;;;;;;3.28;68.15;101290.34;15801624;28;20113;-58
2021/01/11 12:10:21;;;;;;;1999.90;999.90;;;;;;;4.09;67.60;101289.69;15800951;28;20119;-57
2021/01/11 12:17:57;;;;;;;1999.90;999.90;;;;;;;4.16;66.90;101284.69;15782331;28;20048;-53
2021/01/11 12:25:31;;;;;;;1999.90;999.90;;;;;;;3.69;68.42;101271.97;15800030;28;20054;-56
2021/01/11 12:33:04;;;;;;;1999.90;999.90;;;;;;;3.68;68.73;101262.03;15781570;28;20398;-56
2021/01/11 12:40:38;;;;;;;1999.90;999.90;;;;;;;3.62;68.95;101235.53;15780648;28;20340;-56
2021/01/11 12:48:10;;;;;;;;;;;;;;;3.60;68.58;101237.72;15800054;28;20043;-59
2021/01/11 12:55:45;;;;;;;1999.90;999.90;;;;;;;3.68;68.34;101237.19;15799382;28;19928;-55
2021/01/11 13:03:17;;;;;;;1999.90;999.90;;;;;;;3.41;69.00;101229.13;15798917;28;20413;-56
2021/01/11 13:10:57;;;;;;;1999.90;999.90;;;;;;;3.19;69.97;101218.31;15798552;28;20040;-56
2021/01/11 13:18:30;;;;;;;1999.90;999.90;;;;;;;3.30;69.83;101216.44;15803300;28;20439;-56
2021/01/11 13:26:04;;;;;;;1999.90;999.90;;;;;;;3.57;68.72;101219.78;15812154;28;20047;-57
2021/01/11 13:33:36;;;;;;;;;;;;;;;3.58;68.80;101204.06;15811819;28;20147;-59
2021/01/11 13:41:11;;;;;;;1999.90;999.90;;;;;;;3.53;67.95;101198.53;15810373;28;19920;-56
2021/01/11 13:48:44;;;;;;;1999.90;999.90;;;;;;;3.43;68.13;101185.53;15791653;28;20158;-55
2021/01/11 13:56:24;;;;;;;1999.90;999.90;;;;;;;3.74;66.73;101178.09;15790720;28;20081;-55
2021/01/11 14:03:57;;;;;;;1999.90;999.90;;;;;;;3.62;66.62;101180.31;15808407;28;20127;-55
2021/01/11 14:11:31;;;;;;;1999.90;999.90;;;;;;;3.77;65.90;101169.28;15808125;28;20044;-54
2021/01/11 14:19:04;;;;;;;1999.90;999.90;;;;;;;3.77;65.32;101163.78;15807746;28;20097;-54
2021/01/11 14:26:38;;;;;;;1999.90;999.90;;;;;;;3.43;65.76;101169.00;15807009;28;20044;-52
2021/01/11 14:34:10;;;;;;;1999.90;999.90;;;;;;;3.86;64.66;101153.84;15788279;28;20207;-55
2021/01/11 14:41:44;;;;;;;1999.90;999.90;;;;;;;3.69;64.47;101148.59;15806345;28;20552;-56
2021/01/11 14:49:17;;;;;;;1999.90;999.90;;;;;;;3.54;64.80;101137.53;15805896;28;20114;-54
2021/01/11 14:56:53;;;;;;;1999.90;999.90;;;;;;;3.41;65.19;101132.56;15786879;28;20044;-56
2021/01/11 15:04:26;;;;;;;1999.90;999.90;;;;;;;3.52;65.03;101123.19;15806097;28;20083;-53
2021/01/11 15:11:59;;;;;;;1999.90;999.90;;;;;;;3.46;64.36;101114.09;15786532;28;20118;-53
2021/01/11 15:19:32;;;;;;;;;;;;;;;3.43;64.57;101098.09;15810373;28;20381;-60
2021/01/11 15:27:06;;;;;;;1999.90;999.90;;;;;;;3.19;64.97;101097.81;15860367;28;19973;-54
2021/01/11 15:34:39;;;;;;;1999.90;999.90;;;;;;;3.09;64.39;101092.28;15847290;28;20040;-57
2021/01/11 15:42:14;;;;;;;1999.90;999.90;;;;;;;3.13;64.13;101078.78;15844953;28;20054;-55
2021/01/11 15:49:47;;;;;;;;;;;;;;;3.23;63.91;101066.91;15844493;28;20051;-57
2021/01/11 15:57:20;;;;;;;1999.90;999.90;;;;;;;2.97;64.07;101077.09;15826416;28;19998;-53
2021/01/11 16:04:55;;;;;;;1999.90;999.90;;;;;;;3.09;63.79;101058.38;15817595;28;20042;-58
2021/01/11 16:12:30;;;;;;;1999.90;999.90;;;;;;;3.18;62.58;101040.19;15817931;28;20461;-53
2021/01/11 16:20:05;;;;;;;1999.90;999.90;;;;;;;3.23;62.52;101023.66;15831895;28;20447;-55
2021/01/11 16:27:39;;;;;;;1999.90;999.90;;;;;;;3.24;61.96;101013.44;15805971;28;20042;-55
2021/01/11 16:35:12;;;;;;;1999.90;999.90;;;;;;;3.14;62.32;100998.53;15824665;28;20055;-56
2021/01/11 16:42:45;;;;;;;1999.90;999.90;;;;;;;3.16;61.76;100987.22;15840946;28;20055;-56
2021/01/11 16:50:18;;;;;;;;;;;;;;;3.31;61.63;101000.16;15837887;28;20362;-57
2021/01/11 16:57:53;;;;;;;1999.90;999.90;;;;;;;3.43;60.53;100998.75;15836882;28;20397;-56
2021/01/11 17:05:26;;;;;;;1999.90;999.90;;;;;;;3.27;61.09;100993.56;15858240;28;20044;-53
2021/01/11 17:12:59;;;;;;;1999.90;999.90;;;;;;;3.31;60.83;100984.44;15784477;28;20071;-56
2021/01/11 17:20:34;;;;;;;;;;;;;;;3.54;60.31;100971.16;15833720;28;20048;-55
2021/01/11 17:28:08;;;;;;;1999.90;999.90;;;;;;;3.50;60.80;100968.13;15839056;28;19919;-57
2021/01/11 17:35:40;;;;;;;;;;;;;;;3.53;60.37;100958.47;15816501;28;20028;-57
2021/01/11 17:43:14;;;;;;;1999.90;999.90;;;;;;;3.51;60.38;100955.16;15807264;28;19961;-59
2021/01/11 17:50:48;;;;;;;1999.90;999.90;;;;;;;3.41;60.55;100936.69;15817834;28;20027;-54
2021/01/11 17:58:21;;;;;;;1999.90;999.90;;;;;;;3.60;60.27;100926.72;15835100;28;20051;-56
2021/01/11 18:05:56;;;;;;;1999.90;999.90;;;;;;;3.47;60.59;100941.94;15834785;28;20055;-55
2021/01/11 18:13:29;;;;;;;1999.90;999.90;;;;;;;3.67;60.04;100921.72;15802966;28;20054;-58
2021/01/11 18:21:03;;;;;;;1999.90;999.90;;;;;;;3.63;60.31;100909.59;15818510;28;20034;-60
2021/01/11 18:28:36;;;;;;;1999.90;999.90;;;;;;;3.69;60.02;100900.19;15851963;28;20353;-52
2021/01/11 18:36:10;;;;;;;1999.90;999.90;;;;;;;3.62;60.28;100899.66;15863997;28;20447;-53
2021/01/11 18:43:44;;;;;;;1999.90;999.90;;;;;;;3.95;59.78;100898.13;15829023;28;20421;-56
2021/01/11 18:51:20;;;;;;;1999.90;999.90;;;;;;;4.02;59.76;100890.34;15834165;28;20051;-59
2021/01/11 18:58:54;;;;;;;1999.90;999.90;;;;;;;3.74;60.04;100883.59;15844521;28;20044;-56
2021/01/11 19:06:27;;;;;;;1999.90;999.90;;;;;;;3.71;60.00;100864.84;15813134;28;20043;-53
2021/01/11 19:14:01;;;;;;;1999.90;999.90;;;;;;;3.83;59.97;100856.22;15808470;28;20055;-56
2021/01/11 19:21:34;;;;;;;1999.90;999.90;;;;;;;3.50;60.07;100838.47;15861439;28;20047;-61
2021/01/11 19:29:07;;;;;;;1999.90;999.90;;;;;;;3.58;60.09;100826.84;15888884;27;20075;-58
2021/01/11 19:36:41;;;;;;;1999.90;999.90;;;;;;;3.86;59.44;100803.22;15873920;27;20036;-61
2021/01/11 19:44:16;;;;;;;1999.90;999.90;;;;;;;3.77;59.91;100810.47;15824552;28;20044;-54
2021/01/11 19:51:49;;;;;;;;;;;;;;;3.84;59.89;100788.03;15849952;28;20040;-58
2021/01/11 19:59:22;;;;;;;1999.90;999.90;;;;;;;3.93;60.34;100789.06;15845394;28;19920;-56
2021/01/11 20:06:55;;;;;;;1999.90;999.90;;;;;;;3.68;60.82;100779.03;15802744;28;20043;-54
2021/01/11 20:14:28;;;;;;;1999.90;999.90;;;;;;;3.82;60.61;100771.75;15828584;28;20067;-53
2021/01/11 20:22:02;;;;;;;1999.90;999.90;;;;;;;3.78;61.05;100767.94;15861360;28;20061;-54
2021/01/11 20:29:37;;;;;;;1999.90;999.90;;;;;;;3.81;61.70;100759.06;15820539;28;20040;-57
2021/01/11 20:37:10;;;;;;;1999.90;999.90;;;;;;;3.98;61.66;100748.47;15834609;27;20153;-56
2021/01/11 20:44:44;;;;;;;1999.90;999.90;;;;;;;3.76;62.73;100721.31;15886795;27;20202;-53
2021/01/11 20:52:17;;;;;;;1999.90;999.90;;;;;;;3.93;62.32;100715.34;15802040;28;20051;-59
2021/01/11 20:59:51;;;;;;;1999.90;999.90;;;;;;;3.93;61.78;100715.34;15847169;28;20055;-57
2021/01/11 21:07:24;;;;;;;1999.90;999.90;;;;;;;4.05;62.31;100724.09;15819188;28;20441;-57
2021/01/11 21:14:58;;;;;;;1999.90;999.90;;;;;;;3.93;61.94;100696.03;15861225;28;20193;-55
2021/01/11 21:22:30;;;;;;;;;;;;;;;4.05;61.48;100674.38;15862204;28;20048;-60
2021/01/11 21:30:06;;;;;;;1999.90;999.90;;;;;;;3.71;62.20;100687.38;15860570;28;20002;-57
2021/01/11 21:37:41;;;;;;;1999.90;999.90;;;;;;;3.74;61.59;100673.81;15863220;28;20112;-59
2021/01/11 21:45:15;;;;;;;1999.90;999.90;;;;;;;3.75;61.87;100669.13;15855126;28;20462;-56
2021/01/11 21:52:47;;;;;;;;;;;;;;;3.87;61.29;100654.97;15808938;28;20043;-60
2021/01/11 22:00:22;;;;;;;1999.90;999.90;;;;;;;3.54;62.70;100642.81;15815430;28;19924;-53
2021/01/11 22:07:54;;;;;;;1999.90;999.90;;;;;;;3.64;62.39;100607.69;15866239;28;20090;-56
2021/01/11 22:15:29;;;;;;;1999.90;999.90;;;;;;;3.47;62.99;100599.00;15833096;28;20040;-52
2021/01/11 22:23:02;;;;;;;1999.90;999.90;;;;;;;3.49;62.12;100583.00;15809210;28;20069;-55
2021/01/11 22:30:36;;;;;;;1999.90;999.90;;;;;;;3.60;62.80;100573.50;15827069;28;20082;-54
2021/01/11 22:38:10;;;;;;;1999.90;999.90;;;;;;;3.24;63.26;100577.69;15808156;28;20798;-56
2021/01/11 22:45:46;;;;;;;1999.90;999.90;;;;;;;3.43;63.15;100540.81;15824993;28;20140;-55
2021/01/11 22:53:18;;;;;;;1999.90;999.90;;;;;;;3.26;63.13;100545.97;15816652;28;20411;-55
2021/01/11 23:00:52;;;;;;;1999.90;999.90;;;;;;;3.41;62.64;100529.25;15850371;28;20060;-57
2021/01/11 23:08:25;;;;;;;1999.90;999.90;;;;;;;3.32;63.17;100513.63;15848328;28;20044;-52
2021/01/11 23:16:01;;;;;;;1999.90;999.90;;;;;;;3.57;62.40;100512.56;15836624;28;20054;-57
2021/01/11 23:23:34;;;;;;;;;;;;;;;3.34;62.61;100495.69;15856124;28;20127;-58
2021/01/11 23:31:07;;;;;;;1999.90;999.90;;;;;;;3.32;63.24;100475.00;15810661;28;19920;-56
2021/01/11 23:38:54;;;;;;;1999.90;999.90;;;;;;;3.27;63.05;100453.03;15820797;28;20032;-54
2021/01/11 23:46:28;;;;;;;1999.90;999.90;;;;;;;3.25;63.50;100435.94;15804855;28;20090;-52
2021/01/11 23:54:01;;;;;;;1999.90;999.90;;;;;;;3.27;63.43;100433.72;15810485;28;20158;-57
